sensor_id;sensor_type;location;lat;lon;timestamp;P1;durP1;ratioP1;P2;durP2;ratioP2
72974;SDS011;61166;54.228;37.632;2023-05-07T00:01:34;9.45;;;3.83;;
72974;SDS011;61166;54.228;37.632;2023-05-07T00:04:01;7.50;;;3.13;;
72974;SDS011;61166;54.228;37.632;2023-05-07T00:06:28;13.73;;;3.22;;
72974;SDS011;61166;54.228;37.632;2023-05-07T00:08:55;8.70;;;3.58;;
72974;SDS011;61166;54.228;37.632;2023-05-07T00:11:22;7.63;;;3.53;;
72974;SDS011;61166;54.228;37.632;2023-05-07T00:13:48;7.80;;;3.30;;
72974;SDS011;61166;54.228;37.632;2023-05-07T00:16:14;7.40;;;3.10;;
72974;SDS011;61166;54.228;37.632;2023-05-07T00:18:41;6.38;;;3.08;;
72974;SDS011;61166;54.228;37.632;2023-05-07T00:21:07;11.10;;;4.35;;
72974;SDS011;61166;54.228;37.632;2023-05-07T00:23:33;8.43;;;3.20;;
72974;SDS011;61166;54.228;37.632;2023-05-07T00:26:00;8.30;;;3.60;;
72974;SDS011;61166;54.228;37.632;2023-05-07T00:28:26;9.43;;;4.10;;
72974;SDS011;61166;54.228;37.632;2023-05-07T00:30:53;8.05;;;3.55;;
72974;SDS011;61166;54.228;37.632;2023-05-07T00:33:19;8.93;;;3.90;;
72974;SDS011;61166;54.228;37.632;2023-05-07T00:35:46;8.43;;;3.97;;
72974;SDS011;61166;54.228;37.632;2023-05-07T00:38:12;11.05;;;3.70;;
72974;SDS011;61166;54.228;37.632;2023-05-07T00:40:38;7.40;;;3.63;;
72974;SDS011;61166;54.228;37.632;2023-05-07T00:43:05;10.20;;;3.97;;
72974;SDS011;61166;54.228;37.632;2023-05-07T00:45:32;8.75;;;4.07;;
72974;SDS011;61166;54.228;37.632;2023-05-07T00:47:59;9.85;;;4.57;;
72974;SDS011;61166;54.228;37.632;2023-05-07T00:50:26;10.07;;;3.63;;
72974;SDS011;61166;54.228;37.632;2023-05-07T00:52:53;9.67;;;3.37;;
72974;SDS011;61166;54.228;37.632;2023-05-07T00:55:20;6.07;;;3.38;;
72974;SDS011;61166;54.228;37.632;2023-05-07T00:57:48;12.38;;;3.92;;
72974;SDS011;61166;54.228;37.632;2023-05-07T01:00:15;9.80;;;4.60;;
72974;SDS011;61166;54.228;37.632;2023-05-07T01:02:42;9.93;;;4.75;;
72974;SDS011;61166;54.228;37.632;2023-05-07T01:05:09;15.37;;;3.87;;
72974;SDS011;61166;54.228;37.632;2023-05-07T01:07:37;10.32;;;4.25;;
72974;SDS011;61166;54.228;37.632;2023-05-07T01:10:04;9.45;;;4.93;;
72974;SDS011;61166;54.228;37.632;2023-05-07T01:12:31;9.00;;;4.25;;
72974;SDS011;61166;54.228;37.632;2023-05-07T01:14:58;11.20;;;4.38;;
72974;SDS011;61166;54.228;37.632;2023-05-07T01:17:25;11.13;;;3.23;;
72974;SDS011;61166;54.228;37.632;2023-05-07T01:19:51;13.88;;;4.80;;
72974;SDS011;61166;54.228;37.632;2023-05-07T01:24:48;9.20;;;3.80;;
72974;SDS011;61166;54.228;37.632;2023-05-07T01:27:15;8.55;;;3.63;;
72974;SDS011;61166;54.228;37.632;2023-05-07T01:29:41;10.93;;;4.00;;
72974;SDS011;61166;54.228;37.632;2023-05-07T01:32:07;7.93;;;4.05;;
72974;SDS011;61166;54.228;37.632;2023-05-07T01:34:34;8.68;;;3.72;;
72974;SDS011;61166;54.228;37.632;2023-05-07T01:37:02;7.78;;;3.65;;
72974;SDS011;61166;54.228;37.632;2023-05-07T01:39:29;7.32;;;3.63;;
72974;SDS011;61166;54.228;37.632;2023-05-07T01:41:56;12.63;;;3.50;;
72974;SDS011;61166;54.228;37.632;2023-05-07T01:44:22;10.88;;;4.38;;
72974;SDS011;61166;54.228;37.632;2023-05-07T01:46:49;9.05;;;4.10;;
72974;SDS011;61166;54.228;37.632;2023-05-07T01:49:16;9.48;;;3.97;;
72974;SDS011;61166;54.228;37.632;2023-05-07T01:51:42;10.05;;;3.90;;
72974;SDS011;61166;54.228;37.632;2023-05-07T01:54:09;10.27;;;4.10;;
72974;SDS011;61166;54.228;37.632;2023-05-07T01:56:36;9.32;;;4.63;;
72974;SDS011;61166;54.228;37.632;2023-05-07T01:59:02;9.38;;;4.13;;
72974;SDS011;61166;54.228;37.632;2023-05-07T02:01:29;10.05;;;4.22;;
72974;SDS011;61166;54.228;37.632;2023-05-07T02:03:55;9.23;;;4.43;;
72974;SDS011;61166;54.228;37.632;2023-05-07T02:06:22;8.97;;;4.63;;
72974;SDS011;61166;54.228;37.632;2023-05-07T02:08:48;10.65;;;4.90;;
72974;SDS011;61166;54.228;37.632;2023-05-07T02:11:15;8.95;;;4.32;;
72974;SDS011;61166;54.228;37.632;2023-05-07T02:13:41;11.80;;;4.95;;
72974;SDS011;61166;54.228;37.632;2023-05-07T02:16:08;8.88;;;4.93;;
72974;SDS011;61166;54.228;37.632;2023-05-07T02:18:34;7.00;;;4.33;;
72974;SDS011;61166;54.228;37.632;2023-05-07T02:21:00;8.88;;;4.60;;
72974;SDS011;61166;54.228;37.632;2023-05-07T02:23:27;13.10;;;5.10;;
72974;SDS011;61166;54.228;37.632;2023-05-07T02:25:53;8.50;;;5.10;;
72974;SDS011;61166;54.228;37.632;2023-05-07T02:28:20;7.45;;;4.75;;
72974;SDS011;61166;54.228;37.632;2023-05-07T02:30:46;9.33;;;5.17;;
72974;SDS011;61166;54.228;37.632;2023-05-07T02:33:12;9.00;;;5.10;;
72974;SDS011;61166;54.228;37.632;2023-05-07T02:35:39;10.00;;;5.55;;
72974;SDS011;61166;54.228;37.632;2023-05-07T02:38:05;11.05;;;5.65;;
72974;SDS011;61166;54.228;37.632;2023-05-07T02:40:32;10.32;;;5.68;;
72974;SDS011;61166;54.228;37.632;2023-05-07T02:42:58;8.57;;;5.50;;
72974;SDS011;61166;54.228;37.632;2023-05-07T02:45:24;9.38;;;6.72;;
72974;SDS011;61166;54.228;37.632;2023-05-07T02:47:51;10.23;;;7.32;;
72974;SDS011;61166;54.228;37.632;2023-05-07T02:50:17;8.00;;;5.82;;
72974;SDS011;61166;54.228;37.632;2023-05-07T02:52:44;10.05;;;6.07;;
72974;SDS011;61166;54.228;37.632;2023-05-07T02:55:11;10.00;;;6.57;;
72974;SDS011;61166;54.228;37.632;2023-05-07T02:57:37;8.85;;;6.43;;
72974;SDS011;61166;54.228;37.632;2023-05-07T03:00:11;9.98;;;7.20;;
72974;SDS011;61166;54.228;37.632;2023-05-07T03:02:38;11.23;;;6.97;;
72974;SDS011;61166;54.228;37.632;2023-05-07T03:05:04;13.90;;;7.82;;
72974;SDS011;61166;54.228;37.632;2023-05-07T03:07:31;11.23;;;7.33;;
72974;SDS011;61166;54.228;37.632;2023-05-07T03:09:57;12.40;;;9.05;;
72974;SDS011;61166;54.228;37.632;2023-05-07T03:12:24;10.88;;;9.20;;
72974;SDS011;61166;54.228;37.632;2023-05-07T03:14:50;10.20;;;8.32;;
72974;SDS011;61166;54.228;37.632;2023-05-07T03:17:16;10.20;;;9.05;;
72974;SDS011;61166;54.228;37.632;2023-05-07T03:19:43;13.53;;;9.63;;
72974;SDS011;61166;54.228;37.632;2023-05-07T03:22:09;10.93;;;9.23;;
72974;SDS011;61166;54.228;37.632;2023-05-07T03:24:35;10.98;;;9.32;;
72974;SDS011;61166;54.228;37.632;2023-05-07T03:27:02;11.15;;;10.05;;
72974;SDS011;61166;54.228;37.632;2023-05-07T03:29:28;12.50;;;10.43;;
72974;SDS011;61166;54.228;37.632;2023-05-07T03:31:55;10.00;;;9.00;;
72974;SDS011;61166;54.228;37.632;2023-05-07T03:34:21;10.43;;;8.75;;
72974;SDS011;61166;54.228;37.632;2023-05-07T03:36:48;12.52;;;10.38;;
72974;SDS011;61166;54.228;37.632;2023-05-07T03:39:14;11.27;;;10.13;;
72974;SDS011;61166;54.228;37.632;2023-05-07T03:41:41;10.32;;;9.23;;
72974;SDS011;61166;54.228;37.632;2023-05-07T03:44:07;11.63;;;9.63;;
72974;SDS011;61166;54.228;37.632;2023-05-07T03:46:34;11.50;;;10.02;;
72974;SDS011;61166;54.228;37.632;2023-05-07T03:49:00;11.95;;;10.85;;
72974;SDS011;61166;54.228;37.632;2023-05-07T03:51:26;12.75;;;10.00;;
72974;SDS011;61166;54.228;37.632;2023-05-07T03:53:53;11.32;;;10.27;;
72974;SDS011;61166;54.228;37.632;2023-05-07T03:56:20;11.77;;;10.67;;
72974;SDS011;61166;54.228;37.632;2023-05-07T03:58:47;13.15;;;11.63;;
72974;SDS011;61166;54.228;37.632;2023-05-07T04:01:13;12.93;;;11.15;;
72974;SDS011;61166;54.228;37.632;2023-05-07T04:03:40;14.10;;;11.25;;
72974;SDS011;61166;54.228;37.632;2023-05-07T04:06:06;13.07;;;11.77;;
72974;SDS011;61166;54.228;37.632;2023-05-07T04:08:33;11.77;;;10.60;;
72974;SDS011;61166;54.228;37.632;2023-05-07T04:10:59;12.23;;;10.90;;
72974;SDS011;61166;54.228;37.632;2023-05-07T04:13:26;11.77;;;10.68;;
72974;SDS011;61166;54.228;37.632;2023-05-07T04:15:54;10.43;;;9.40;;
72974;SDS011;61166;54.228;37.632;2023-05-07T04:18:20;10.20;;;9.30;;
72974;SDS011;61166;54.228;37.632;2023-05-07T04:20:47;11.13;;;10.13;;
72974;SDS011;61166;54.228;37.632;2023-05-07T04:23:14;11.40;;;10.02;;
72974;SDS011;61166;54.228;37.632;2023-05-07T04:25:40;11.73;;;10.82;;
72974;SDS011;61166;54.228;37.632;2023-05-07T04:28:07;12.40;;;11.30;;
72974;SDS011;61166;54.228;37.632;2023-05-07T04:30:33;10.38;;;9.48;;
72974;SDS011;61166;54.228;37.632;2023-05-07T04:32:59;10.73;;;9.90;;
72974;SDS011;61166;54.228;37.632;2023-05-07T04:35:26;11.40;;;10.25;;
72974;SDS011;61166;54.228;37.632;2023-05-07T04:37:52;10.82;;;10.13;;
72974;SDS011;61166;54.228;37.632;2023-05-07T04:40:19;10.07;;;9.38;;
72974;SDS011;61166;54.228;37.632;2023-05-07T04:42:45;11.68;;;10.68;;
72974;SDS011;61166;54.228;37.632;2023-05-07T04:45:11;10.47;;;9.67;;
72974;SDS011;61166;54.228;37.632;2023-05-07T04:47:38;7.82;;;7.13;;
72974;SDS011;61166;54.228;37.632;2023-05-07T04:50:05;8.45;;;7.85;;
72974;SDS011;61166;54.228;37.632;2023-05-07T04:52:33;8.73;;;7.47;;
72974;SDS011;61166;54.228;37.632;2023-05-07T04:54:59;8.63;;;7.60;;
72974;SDS011;61166;54.228;37.632;2023-05-07T04:57:26;9.43;;;8.73;;
72974;SDS011;61166;54.228;37.632;2023-05-07T04:59:53;9.23;;;8.43;;
72974;SDS011;61166;54.228;37.632;2023-05-07T05:02:20;9.88;;;8.98;;
72974;SDS011;61166;54.228;37.632;2023-05-07T05:04:47;8.90;;;8.10;;
72974;SDS011;61166;54.228;37.632;2023-05-07T05:07:13;9.07;;;8.27;;
72974;SDS011;61166;54.228;37.632;2023-05-07T05:09:40;8.27;;;7.67;;
72974;SDS011;61166;54.228;37.632;2023-05-07T05:12:06;8.18;;;7.57;;
72974;SDS011;61166;54.228;37.632;2023-05-07T05:14:33;8.23;;;7.63;;
72974;SDS011;61166;54.228;37.632;2023-05-07T05:16:59;8.07;;;7.40;;
72974;SDS011;61166;54.228;37.632;2023-05-07T05:19:26;7.85;;;7.35;;
72974;SDS011;61166;54.228;37.632;2023-05-07T05:21:52;6.87;;;6.27;;
72974;SDS011;61166;54.228;37.632;2023-05-07T05:24:19;5.90;;;5.40;;
72974;SDS011;61166;54.228;37.632;2023-05-07T05:26:45;6.90;;;6.50;;
72974;SDS011;61166;54.228;37.632;2023-05-07T05:29:12;7.03;;;6.63;;
72974;SDS011;61166;54.228;37.632;2023-05-07T05:31:38;7.22;;;6.75;;
72974;SDS011;61166;54.228;37.632;2023-05-07T05:34:04;6.80;;;6.30;;
72974;SDS011;61166;54.228;37.632;2023-05-07T05:36:31;6.25;;;5.75;;
72974;SDS011;61166;54.228;37.632;2023-05-07T05:38:58;6.95;;;6.20;;
72974;SDS011;61166;54.228;37.632;2023-05-07T05:41:24;5.68;;;5.22;;
72974;SDS011;61166;54.228;37.632;2023-05-07T05:43:51;6.95;;;6.40;;
72974;SDS011;61166;54.228;37.632;2023-05-07T05:46:17;7.57;;;6.97;;
72974;SDS011;61166;54.228;37.632;2023-05-07T05:48:44;5.47;;;4.97;;
72974;SDS011;61166;54.228;37.632;2023-05-07T05:51:11;7.47;;;6.97;;
72974;SDS011;61166;54.228;37.632;2023-05-07T05:53:37;6.38;;;5.82;;
72974;SDS011;61166;54.228;37.632;2023-05-07T05:56:05;5.20;;;4.80;;
72974;SDS011;61166;54.228;37.632;2023-05-07T05:58:32;5.27;;;4.87;;
72974;SDS011;61166;54.228;37.632;2023-05-07T06:00:58;5.45;;;5.05;;
72974;SDS011;61166;54.228;37.632;2023-05-07T06:03:25;13.07;;;11.40;;
72974;SDS011;61166;54.228;37.632;2023-05-07T06:05:51;10.57;;;9.48;;
72974;SDS011;61166;54.228;37.632;2023-05-07T06:08:18;14.65;;;11.30;;
72974;SDS011;61166;54.228;37.632;2023-05-07T06:10:44;21.40;;;12.83;;
72974;SDS011;61166;54.228;37.632;2023-05-07T06:13:11;10.45;;;9.32;;
72974;SDS011;61166;54.228;37.632;2023-05-07T06:15:37;8.20;;;7.35;;
72974;SDS011;61166;54.228;37.632;2023-05-07T06:18:04;6.28;;;5.70;;
72974;SDS011;61166;54.228;37.632;2023-05-07T06:20:30;8.05;;;7.32;;
72974;SDS011;61166;54.228;37.632;2023-05-07T06:22:57;5.07;;;4.67;;
72974;SDS011;61166;54.228;37.632;2023-05-07T06:25:23;6.10;;;5.70;;
72974;SDS011;61166;54.228;37.632;2023-05-07T06:27:50;5.75;;;5.25;;
72974;SDS011;61166;54.228;37.632;2023-05-07T06:30:17;5.45;;;5.05;;
72974;SDS011;61166;54.228;37.632;2023-05-07T06:32:43;5.95;;;5.50;;
72974;SDS011;61166;54.228;37.632;2023-05-07T06:35:10;9.43;;;5.63;;
72974;SDS011;61166;54.228;37.632;2023-05-07T06:37:36;6.70;;;6.10;;
72974;SDS011;61166;54.228;37.632;2023-05-07T06:40:03;8.35;;;7.25;;
72974;SDS011;61166;54.228;37.632;2023-05-07T06:42:29;5.97;;;5.47;;
72974;SDS011;61166;54.228;37.632;2023-05-07T06:44:56;9.63;;;6.25;;
72974;SDS011;61166;54.228;37.632;2023-05-07T06:47:22;5.93;;;5.43;;
72974;SDS011;61166;54.228;37.632;2023-05-07T06:49:49;5.90;;;5.28;;
72974;SDS011;61166;54.228;37.632;2023-05-07T06:52:15;6.70;;;6.13;;
72974;SDS011;61166;54.228;37.632;2023-05-07T06:54:41;6.10;;;4.10;;
72974;SDS011;61166;54.228;37.632;2023-05-07T06:57:08;9.20;;;8.15;;
72974;SDS011;61166;54.228;37.632;2023-05-07T06:59:35;7.03;;;6.43;;
72974;SDS011;61166;54.228;37.632;2023-05-07T07:02:01;6.20;;;5.70;;
72974;SDS011;61166;54.228;37.632;2023-05-07T07:04:28;6.60;;;6.10;;
72974;SDS011;61166;54.228;37.632;2023-05-07T07:06:54;4.20;;;3.80;;
72974;SDS011;61166;54.228;37.632;2023-05-07T07:09:21;4.80;;;4.40;;
72974;SDS011;61166;54.228;37.632;2023-05-07T07:11:49;8.07;;;4.97;;
72974;SDS011;61166;54.228;37.632;2023-05-07T07:14:15;5.95;;;5.35;;
72974;SDS011;61166;54.228;37.632;2023-05-07T07:16:42;6.22;;;4.93;;
72974;SDS011;61166;54.228;37.632;2023-05-07T07:19:08;4.50;;;4.20;;
72974;SDS011;61166;54.228;37.632;2023-05-07T07:21:35;6.15;;;5.55;;
72974;SDS011;61166;54.228;37.632;2023-05-07T07:24:01;5.87;;;5.37;;
72974;SDS011;61166;54.228;37.632;2023-05-07T07:26:28;5.18;;;4.68;;
72974;SDS011;61166;54.228;37.632;2023-05-07T07:28:54;4.32;;;2.95;;
72974;SDS011;61166;54.228;37.632;2023-05-07T07:31:21;3.03;;;2.42;;
72974;SDS011;61166;54.228;37.632;2023-05-07T07:33:47;3.63;;;2.50;;
72974;SDS011;61166;54.228;37.632;2023-05-07T07:36:16;4.43;;;2.70;;
72974;SDS011;61166;54.228;37.632;2023-05-07T07:38:42;3.30;;;2.40;;
72974;SDS011;61166;54.228;37.632;2023-05-07T07:41:12;4.68;;;4.05;;
72974;SDS011;61166;54.228;37.632;2023-05-07T07:43:38;4.75;;;4.20;;
72974;SDS011;61166;54.228;37.632;2023-05-07T07:46:04;4.85;;;4.38;;
72974;SDS011;61166;54.228;37.632;2023-05-07T07:48:31;4.70;;;4.30;;
72974;SDS011;61166;54.228;37.632;2023-05-07T07:50:57;3.80;;;3.42;;
72974;SDS011;61166;54.228;37.632;2023-05-07T07:53:24;3.90;;;3.60;;
72974;SDS011;61166;54.228;37.632;2023-05-07T07:55:50;3.90;;;2.10;;
72974;SDS011;61166;54.228;37.632;2023-05-07T07:58:17;3.03;;;2.72;;
72974;SDS011;61166;54.228;37.632;2023-05-07T08:00:43;4.87;;;4.37;;
72974;SDS011;61166;54.228;37.632;2023-05-07T08:03:10;4.30;;;3.25;;
72974;SDS011;61166;54.228;37.632;2023-05-07T08:05:37;2.90;;;2.17;;
72974;SDS011;61166;54.228;37.632;2023-05-07T08:08:03;3.47;;;2.67;;
72974;SDS011;61166;54.228;37.632;2023-05-07T08:10:30;5.13;;;2.97;;
72974;SDS011;61166;54.228;37.632;2023-05-07T08:12:56;6.43;;;3.67;;
72974;SDS011;61166;54.228;37.632;2023-05-07T08:15:23;3.05;;;2.55;;
72974;SDS011;61166;54.228;37.632;2023-05-07T08:17:49;3.10;;;2.22;;
72974;SDS011;61166;54.228;37.632;2023-05-07T08:20:16;4.13;;;3.30;;
72974;SDS011;61166;54.228;37.632;2023-05-07T08:22:42;3.70;;;3.38;;
72974;SDS011;61166;54.228;37.632;2023-05-07T08:25:09;3.97;;;3.57;;
72974;SDS011;61166;54.228;37.632;2023-05-07T08:27:35;2.78;;;2.25;;
72974;SDS011;61166;54.228;37.632;2023-05-07T08:30:02;3.33;;;2.78;;
72974;SDS011;61166;54.228;37.632;2023-05-07T08:32:28;3.10;;;2.10;;
72974;SDS011;61166;54.228;37.632;2023-05-07T08:34:55;6.03;;;4.10;;
72974;SDS011;61166;54.228;37.632;2023-05-07T08:37:21;4.03;;;2.70;;
72974;SDS011;61166;54.228;37.632;2023-05-07T08:39:48;3.67;;;2.10;;
72974;SDS011;61166;54.228;37.632;2023-05-07T08:42:15;5.10;;;2.63;;
72974;SDS011;61166;54.228;37.632;2023-05-07T08:44:42;4.30;;;2.42;;
72974;SDS011;61166;54.228;37.632;2023-05-07T08:47:10;5.45;;;3.42;;
72974;SDS011;61166;54.228;37.632;2023-05-07T08:49:37;3.50;;;2.90;;
72974;SDS011;61166;54.228;37.632;2023-05-07T08:52:03;3.80;;;3.40;;
72974;SDS011;61166;54.228;37.632;2023-05-07T08:54:33;4.00;;;3.20;;
72974;SDS011;61166;54.228;37.632;2023-05-07T08:56:59;4.82;;;4.03;;
72974;SDS011;61166;54.228;37.632;2023-05-07T08:59:26;3.55;;;2.88;;
72974;SDS011;61166;54.228;37.632;2023-05-07T09:01:52;4.50;;;2.70;;
72974;SDS011;61166;54.228;37.632;2023-05-07T09:04:19;4.93;;;3.20;;
72974;SDS011;61166;54.228;37.632;2023-05-07T09:06:45;4.88;;;3.13;;
72974;SDS011;61166;54.228;37.632;2023-05-07T09:09:14;3.80;;;3.50;;
72974;SDS011;61166;54.228;37.632;2023-05-07T09:11:40;3.05;;;2.50;;
72974;SDS011;61166;54.228;37.632;2023-05-07T09:14:07;3.70;;;3.33;;
72974;SDS011;61166;54.228;37.632;2023-05-07T09:16:35;4.70;;;3.28;;
72974;SDS011;61166;54.228;37.632;2023-05-07T09:19:01;3.20;;;2.88;;
72974;SDS011;61166;54.228;37.632;2023-05-07T09:21:27;4.57;;;2.65;;
72974;SDS011;61166;54.228;37.632;2023-05-07T09:23:54;5.18;;;2.60;;
72974;SDS011;61166;54.228;37.632;2023-05-07T09:26:21;3.83;;;2.83;;
72974;SDS011;61166;54.228;37.632;2023-05-07T09:28:48;3.42;;;2.58;;
72974;SDS011;61166;54.228;37.632;2023-05-07T09:31:14;4.20;;;2.50;;
72974;SDS011;61166;54.228;37.632;2023-05-07T09:33:43;7.30;;;3.28;;
72974;SDS011;61166;54.228;37.632;2023-05-07T09:36:09;3.63;;;2.40;;
72974;SDS011;61166;54.228;37.632;2023-05-07T09:38:36;3.73;;;3.03;;
72974;SDS011;61166;54.228;37.632;2023-05-07T09:43:33;4.28;;;3.78;;
72974;SDS011;61166;54.228;37.632;2023-05-07T09:46:02;6.97;;;3.05;;
72974;SDS011;61166;54.228;37.632;2023-05-07T09:48:29;5.57;;;3.58;;
72974;SDS011;61166;54.228;37.632;2023-05-07T09:50:55;4.50;;;3.10;;
72974;SDS011;61166;54.228;37.632;2023-05-07T09:53:23;8.00;;;3.28;;
72974;SDS011;61166;54.228;37.632;2023-05-07T09:55:50;5.35;;;3.28;;
72974;SDS011;61166;54.228;37.632;2023-05-07T09:58:17;3.40;;;2.67;;
72974;SDS011;61166;54.228;37.632;2023-05-07T10:00:44;4.45;;;2.83;;
72974;SDS011;61166;54.228;37.632;2023-05-07T10:03:11;4.87;;;2.20;;
72974;SDS011;61166;54.228;37.632;2023-05-07T10:05:39;5.30;;;1.90;;
72974;SDS011;61166;54.228;37.632;2023-05-07T10:08:06;4.28;;;2.67;;
72974;SDS011;61166;54.228;37.632;2023-05-07T10:10:33;4.97;;;2.90;;
72974;SDS011;61166;54.228;37.632;2023-05-07T10:13:00;4.20;;;2.22;;
72974;SDS011;61166;54.228;37.632;2023-05-07T10:15:28;7.20;;;2.97;;
72974;SDS011;61166;54.228;37.632;2023-05-07T10:17:54;10.73;;;3.83;;
72974;SDS011;61166;54.228;37.632;2023-05-07T10:20:22;5.35;;;2.17;;
72974;SDS011;61166;54.228;37.632;2023-05-07T10:22:50;5.47;;;2.22;;
72974;SDS011;61166;54.228;37.632;2023-05-07T10:25:19;2.97;;;2.15;;
72974;SDS011;61166;54.228;37.632;2023-05-07T10:27:47;3.83;;;1.80;;
72974;SDS011;61166;54.228;37.632;2023-05-07T10:30:28;3.72;;;1.70;;
72974;SDS011;61166;54.228;37.632;2023-05-07T10:33:01;2.95;;;1.90;;
72974;SDS011;61166;54.228;37.632;2023-05-07T10:35:29;4.32;;;1.90;;
72974;SDS011;61166;54.228;37.632;2023-05-07T10:37:56;5.38;;;2.22;;
72974;SDS011;61166;54.228;37.632;2023-05-07T10:40:23;5.70;;;2.60;;
72974;SDS011;61166;54.228;37.632;2023-05-07T10:43:00;6.22;;;2.47;;
72974;SDS011;61166;54.228;37.632;2023-05-07T10:45:27;3.35;;;2.20;;
72974;SDS011;61166;54.228;37.632;2023-05-07T10:48:07;3.03;;;1.52;;
72974;SDS011;61166;54.228;37.632;2023-05-07T10:50:52;3.47;;;2.00;;
72974;SDS011;61166;54.228;37.632;2023-05-07T10:53:39;5.70;;;1.40;;
72974;SDS011;61166;54.228;37.632;2023-05-07T10:58:44;3.28;;;2.05;;
72974;SDS011;61166;54.228;37.632;2023-05-07T11:01:10;3.08;;;1.70;;
72974;SDS011;61166;54.228;37.632;2023-05-07T11:03:37;3.80;;;2.00;;
72974;SDS011;61166;54.228;37.632;2023-05-07T11:06:23;3.80;;;1.50;;
72974;SDS011;61166;54.228;37.632;2023-05-07T11:11:19;3.97;;;2.15;;
72974;SDS011;61166;54.228;37.632;2023-05-07T11:13:46;4.95;;;2.90;;
72974;SDS011;61166;54.228;37.632;2023-05-07T11:18:46;3.27;;;1.73;;
72974;SDS011;61166;54.228;37.632;2023-05-07T11:21:14;3.10;;;1.70;;
72974;SDS011;61166;54.228;37.632;2023-05-07T11:23:57;5.82;;;2.05;;
72974;SDS011;61166;54.228;37.632;2023-05-07T11:26:24;5.35;;;2.22;;
72974;SDS011;61166;54.228;37.632;2023-05-07T11:28:51;6.05;;;1.92;;
72974;SDS011;61166;54.228;37.632;2023-05-07T11:31:21;5.23;;;2.30;;
72974;SDS011;61166;54.228;37.632;2023-05-07T11:33:48;3.85;;;1.67;;
72974;SDS011;61166;54.228;37.632;2023-05-07T11:36:14;2.97;;;2.08;;
72974;SDS011;61166;54.228;37.632;2023-05-07T11:38:41;3.55;;;1.67;;
72974;SDS011;61166;54.228;37.632;2023-05-07T11:41:07;6.07;;;2.20;;
72974;SDS011;61166;54.228;37.632;2023-05-07T11:43:37;5.73;;;2.60;;
72974;SDS011;61166;54.228;37.632;2023-05-07T11:46:09;4.70;;;1.67;;
72974;SDS011;61166;54.228;37.632;2023-05-07T11:48:37;4.65;;;1.80;;
72974;SDS011;61166;54.228;37.632;2023-05-07T11:51:04;4.35;;;1.98;;
72974;SDS011;61166;54.228;37.632;2023-05-07T11:53:38;5.63;;;2.03;;
72974;SDS011;61166;54.228;37.632;2023-05-07T11:56:08;4.83;;;2.30;;
72974;SDS011;61166;54.228;37.632;2023-05-07T11:58:35;7.78;;;1.83;;
72974;SDS011;61166;54.228;37.632;2023-05-07T12:01:01;3.55;;;1.70;;
72974;SDS011;61166;54.228;37.632;2023-05-07T12:03:28;6.57;;;2.20;;
72974;SDS011;61166;54.228;37.632;2023-05-07T12:06:00;3.60;;;1.70;;
72974;SDS011;61166;54.228;37.632;2023-05-07T12:08:27;8.67;;;2.53;;
72974;SDS011;61166;54.228;37.632;2023-05-07T12:10:53;4.60;;;2.03;;
72974;SDS011;61166;54.228;37.632;2023-05-07T12:13:20;5.32;;;2.55;;
72974;SDS011;61166;54.228;37.632;2023-05-07T12:15:53;5.70;;;1.98;;
72974;SDS011;61166;54.228;37.632;2023-05-07T12:18:21;3.70;;;2.13;;
72974;SDS011;61166;54.228;37.632;2023-05-07T12:20:48;4.33;;;1.33;;
72974;SDS011;61166;54.228;37.632;2023-05-07T12:23:15;2.63;;;1.15;;
72974;SDS011;61166;54.228;37.632;2023-05-07T12:25:42;3.00;;;1.50;;
72974;SDS011;61166;54.228;37.632;2023-05-07T12:28:12;4.30;;;1.60;;
72974;SDS011;61166;54.228;37.632;2023-05-07T12:30:39;3.70;;;1.42;;
72974;SDS011;61166;54.228;37.632;2023-05-07T12:33:06;3.70;;;1.67;;
72974;SDS011;61166;54.228;37.632;2023-05-07T12:35:35;4.45;;;1.42;;
72974;SDS011;61166;54.228;37.632;2023-05-07T12:38:02;2.85;;;1.73;;
72974;SDS011;61166;54.228;37.632;2023-05-07T12:40:38;2.63;;;1.20;;
72974;SDS011;61166;54.228;37.632;2023-05-07T12:43:05;9.05;;;2.53;;
72974;SDS011;61166;54.228;37.632;2023-05-07T12:45:31;3.63;;;1.37;;
72974;SDS011;61166;54.228;37.632;2023-05-07T12:48:02;4.13;;;1.70;;
72974;SDS011;61166;54.228;37.632;2023-05-07T12:50:32;3.53;;;2.00;;
72974;SDS011;61166;54.228;37.632;2023-05-07T12:52:59;2.30;;;1.50;;
72974;SDS011;61166;54.228;37.632;2023-05-07T12:55:26;3.97;;;2.10;;
72974;SDS011;61166;54.228;37.632;2023-05-07T12:58:00;3.47;;;1.73;;
72974;SDS011;61166;54.228;37.632;2023-05-07T13:00:37;4.85;;;2.25;;
72974;SDS011;61166;54.228;37.632;2023-05-07T13:03:04;3.47;;;2.00;;
72974;SDS011;61166;54.228;37.632;2023-05-07T13:05:31;3.28;;;1.80;;
72974;SDS011;61166;54.228;37.632;2023-05-07T13:07:58;6.82;;;3.05;;
72974;SDS011;61166;54.228;37.632;2023-05-07T13:10:24;3.27;;;1.50;;
72974;SDS011;61166;54.228;37.632;2023-05-07T13:12:51;4.72;;;2.05;;
72974;SDS011;61166;54.228;37.632;2023-05-07T13:15:17;5.45;;;2.10;;
72974;SDS011;61166;54.228;37.632;2023-05-07T13:17:44;5.25;;;2.00;;
72974;SDS011;61166;54.228;37.632;2023-05-07T13:20:10;3.75;;;1.90;;
72974;SDS011;61166;54.228;37.632;2023-05-07T13:22:37;3.97;;;1.63;;
72974;SDS011;61166;54.228;37.632;2023-05-07T13:25:03;4.57;;;1.50;;
72974;SDS011;61166;54.228;37.632;2023-05-07T13:27:30;3.63;;;2.28;;
72974;SDS011;61166;54.228;37.632;2023-05-07T13:29:56;2.90;;;1.90;;
72974;SDS011;61166;54.228;37.632;2023-05-07T13:32:23;3.97;;;2.28;;
72974;SDS011;61166;54.228;37.632;2023-05-07T13:34:49;5.83;;;1.90;;
72974;SDS011;61166;54.228;37.632;2023-05-07T13:37:16;4.45;;;2.30;;
72974;SDS011;61166;54.228;37.632;2023-05-07T13:39:42;5.25;;;2.17;;
72974;SDS011;61166;54.228;37.632;2023-05-07T13:42:09;6.07;;;3.80;;
72974;SDS011;61166;54.228;37.632;2023-05-07T13:44:35;6.60;;;2.08;;
72974;SDS011;61166;54.228;37.632;2023-05-07T13:47:01;2.57;;;1.63;;
72974;SDS011;61166;54.228;37.632;2023-05-07T13:49:28;4.03;;;1.92;;
72974;SDS011;61166;54.228;37.632;2023-05-07T13:51:55;4.72;;;2.45;;
72974;SDS011;61166;54.228;37.632;2023-05-07T13:54:21;6.60;;;2.50;;
72974;SDS011;61166;54.228;37.632;2023-05-07T13:56:48;6.03;;;2.20;;
72974;SDS011;61166;54.228;37.632;2023-05-07T13:59:14;6.87;;;2.53;;
72974;SDS011;61166;54.228;37.632;2023-05-07T14:01:41;5.57;;;2.40;;
72974;SDS011;61166;54.228;37.632;2023-05-07T14:04:07;7.88;;;2.40;;
72974;SDS011;61166;54.228;37.632;2023-05-07T14:06:34;8.50;;;3.28;;
72974;SDS011;61166;54.228;37.632;2023-05-07T14:09:00;5.57;;;2.83;;
72974;SDS011;61166;54.228;37.632;2023-05-07T14:11:27;3.60;;;1.63;;
72974;SDS011;61166;54.228;37.632;2023-05-07T14:13:53;5.30;;;2.13;;
72974;SDS011;61166;54.228;37.632;2023-05-07T14:16:19;4.55;;;1.92;;
72974;SDS011;61166;54.228;37.632;2023-05-07T14:18:46;5.28;;;2.00;;
72974;SDS011;61166;54.228;37.632;2023-05-07T14:21:14;3.85;;;2.33;;
72974;SDS011;61166;54.228;37.632;2023-05-07T14:23:40;5.13;;;2.43;;
72974;SDS011;61166;54.228;37.632;2023-05-07T14:26:07;7.10;;;2.70;;
72974;SDS011;61166;54.228;37.632;2023-05-07T14:28:37;6.82;;;2.42;;
72974;SDS011;61166;54.228;37.632;2023-05-07T14:31:07;6.13;;;2.70;;
72974;SDS011;61166;54.228;37.632;2023-05-07T14:33:34;5.18;;;2.42;;
72974;SDS011;61166;54.228;37.632;2023-05-07T14:36:01;6.27;;;2.60;;
72974;SDS011;61166;54.228;37.632;2023-05-07T14:38:27;10.70;;;2.67;;
72974;SDS011;61166;54.228;37.632;2023-05-07T14:40:53;4.10;;;2.00;;
72974;SDS011;61166;54.228;37.632;2023-05-07T14:43:20;6.22;;;3.42;;